x

Frying Pan Shoals, Nc Buoy (41013) Wave Buoy

8:50am - Tue 28th Jul 2015 All times are EDT. -4 hours from GMT.

  • Sig Wave height 4.3ft
  • Swell Direction
  • Peak Period 8s
  • Average Period 5s
  • Wind
    18mph, 20mph gusts
  • Sea Temp 83°f
  • Air Temp 83°f
  • Sea Pressure 1015.4mb
  • Frying Pan Shoals, Nc Buoy
  • Frying Pan Shoals, Nc Buoy

More Historic Weather Station data

Upgrade to MSW Pro to gain access to the past 30 days of data for over 8000 Wavebouys and Weather Stations around the globe.

Join Pro

Comparision Forecast

View Surf forecast
   
Tue 07/28 8:50am 4.5ft 8s 5s 18 20 mph 1015.4mb 83f 83f
7:50am 4ft 7s 5s 16 18 mph 1014.7mb 83f 83f
6:50am 4ft 7s 5s 13 16 mph 1014.5mb 83f 83f
5:50am 3.5ft 7s 5s 13 16 mph 1014.1mb 84f 83f
4:50am 3.5ft 7s 5s 13 16 mph 1014.1mb 84f 83f
3:50am 3.5ft 7s 5s 13 16 mph 1014.3mb 84f 83f
2:50am 3.5ft 7s 5s 11 13 mph 1014.6mb 84f 83f
1:50am 3.5ft 7s 5s 11 13 mph 1015mb 83f 83f
12:50am 4ft 6s 5s 13 16 mph 1015mb 83f 83f
Mon 07/27 11:50pm 3.5ft 6s 4s 11 13 mph 1015.4mb 83f 83f
10:50pm 3.5ft 6s 5s 11 13 mph 1015.5mb 83f 83f
9:50pm 4ft 6s 5s 13 16 mph 1014.9mb 83f 83f
8:50pm 4ft 5s 5s 16 20 mph 1014.7mb 84f 83f
7:50pm 4ft 5s 5s 16 20 mph 1014.8mb 84f 84f
6:50pm 4ft 5s 5s 18 22 mph 1014.3mb 84f 84f
5:50pm 3.5ft 6s 5s 18 20 mph 1014.4mb 84f 85f
4:50pm 3.5ft 5s 5s 16 20 mph 1014.6mb 84f 84f
3:50pm 3.5ft 6s 5s 16 18 mph 1014.9mb 84f 83f
2:50pm 3ft 6s 5s 16 18 mph 1015.3mb 84f 82f
1:50pm 3ft 6s 5s 9
mph
1015.4mb 84f 84f
12:50pm 3.5ft 6s 5s 11 13 mph 1015.8mb 84f 83f
11:50am 3.5ft 6s 5s 11 13 mph 1016.2mb 83f 83f
10:50am 3.5ft 6s 5s 9 11 mph 1015.9mb 83f 84f
9:50am 3.5ft 6s 5s 9 11 mph 1015.6mb 83f 84f
8:50am 3.5ft 6s 5s 11 13 mph 1015.1mb 83f 84f
7:50am 3.5ft 6s 5s 11 13 mph 1014.7mb 83f 85f
6:50am 3ft 6s 5s 13 16 mph 1014.4mb 83f 84f
5:50am 3.5ft 6s 5s 11 13 mph 1014mb 83f 83f
4:50am 3.5ft 6s 5s 13 16 mph 1013.8mb 83f 83f
3:50am 3.5ft 6s 5s 11 13 mph 1013.9mb 83f 83f
2:50am 3.5ft 11s 5s 13 16 mph 1013.9mb 83f 83f
1:50am 3.5ft 6s 5s 13 18 mph 1014.2mb 83f 83f
12:50am 3.5ft 5s 5s 16 18 mph 1014.5mb 83f 84f
Sun 07/26 11:50pm 3.5ft 6s 5s 16 18 mph 1014.9mb 83f 84f
10:50pm 4ft 6s 5s 16 20 mph 1015mb 83f 81f
9:50pm 4ft 7s 5s 16 18 mph 1015.1mb 83f 81f
8:50pm 4.5ft 6s 5s 13 16 mph 1014.9mb 83f 81f
7:50pm 4ft 7s 5s 13 16 mph 1014.8mb 83f 81f
6:50pm 4.5ft 7s 5s 11 13 mph 1014.5mb 83f 82f
5:50pm 4ft 7s 5s 18 20 mph 1014.1mb 83f 81f
4:50pm 3.5ft 7s 5s 13 18 mph 1014.3mb 83f 83f
3:50pm 3.5ft 7s 5s 13 16 mph 1014.6mb 83f 82f
2:50pm 3.5ft 6s 5s 16 18 mph 1014.7mb 83f 82f
1:50pm 3.5ft 5s 5s 13
mph
1015.1mb 83f 82f
12:50pm 3.5ft 5s 5s 11 13 mph 1015.7mb 83f 81f
11:50am 4ft 5s 4s 16 18 mph 1015.5mb 83f 82f
10:50am 4.5ft 5s 4s 20 22 mph 1015.1mb 82f 81f
9:50am 4ft 5s 5s 18 22 mph 1014.9mb 82f 82f
8:50am 4.5ft 5s 5s 20 22 mph 1014.7mb 82f 82f
7:50am 4ft 5s 4s 20 22 mph 1014.4mb 82f 82f
6:50am 4ft 5s 5s 20 25 mph 1013.7mb 82f 81f
5:50am 4ft 6s 5s 18 22 mph 1013.2mb 82f 82f
4:50am 4ft 6s 5s 18 20 mph 1013.1mb 82f 82f
3:50am 4ft 7s 5s 16 18 mph 1013.5mb 82f 82f
2:50am 4ft 7s 5s 13 16 mph 1013.9mb 82f 82f
1:50am 4ft 5s 5s 13 18 mph 1014.4mb 82f 83f
12:50am 4.5ft 6s 5s 16 20 mph 1014.3mb 82f 83f
Sat 07/25 11:50pm 4.5ft 6s 5s 16 20 mph 1014.8mb 82f 82f
10:50pm 4.5ft 7s 5s 18 22 mph 1014.7mb 82f 82f
9:50pm 5ft 7s 5s 22 25 mph 1014.4mb 82f 82f
8:50pm 5ft 6s 5s 20 22 mph 1014.3mb 82f 82f
7:50pm 5ft 6s 5s 20 22 mph 1014.3mb 82f 82f
6:50pm 5ft 6s 5s 20 25 mph 1013.9mb 82f 82f
5:50pm 5ft 6s 5s 20 25 mph 1014mb 82f 81f
4:50pm 4.5ft 6s 5s 20 22 mph 1014mb 82f 81f
3:50pm 5ft 7s 5s 20 22 mph 1014.8mb 82f 81f
2:50pm 5ft 6s 5s 20 22 mph 1015mb 82f 81f
1:50pm 5ft 6s 5s 20 22 mph 1014.7mb 82f 81f
12:50pm 5.5ft 6s 5s 20 22 mph 1014.8mb 82f 81f
11:50am 5.5ft 7s 5s 20 25 mph 1015.2mb 82f 82f
10:50am 5ft 6s 5s 22 27 mph 1015mb 82f 82f
9:50am 5ft 5s 5s 22 27 mph 1014.6mb 82f 82f
8:50am 4.5ft 6s 5s 22 25 mph 1014.5mb 82f 81f
7:50am 4.5ft 6s 5s 20 22 mph 1014.2mb 82f 81f
6:50am 4.5ft 7s 5s 20 22 mph 1013.4mb 82f 80f
5:50am 4.5ft 8s 5s 18 20 mph 1013.4mb 82f 80f
4:50am 4ft 5s 5s 18 20 mph 1012.8mb 82f 80f
3:50am 4.5ft 7s 5s 18 22 mph 1012.7mb 83f 81f
2:50am 4.5ft 6s 5s 18 20 mph 1012.8mb 83f 81f
1:50am 4.5ft 6s 5s 18 22 mph 1012.9mb 83f 81f
12:50am 4.5ft 6s 4s 20 25 mph 1013.3mb 83f 81f
Fri 07/24 11:50pm 4.5ft 6s 5s 20 25 mph 1013.7mb 83f 82f
10:50pm 4ft 6s 4s 18 22 mph 1014mb 83f 82f
9:50pm 4.5ft 6s 5s 18 20 mph 1013.6mb 83f 82f
8:50pm 4.5ft 6s 5s 18 20 mph 1013.2mb 83f 82f
7:50pm 3.5ft 5s 5s 16 20 mph 1012.9mb 83f 82f
6:50pm 4ft 6s 5s 16 18 mph 1012.5mb 83f 82f
5:50pm 3.5ft 6s 4s 16 18 mph 1012mb 83f 81f
4:50pm 3.5ft 5s 4s 16 20 mph 1012.1mb 83f 81f
3:50pm 3.5ft 5s 4s 16 18 mph 1012.4mb 83f 81f
2:50pm 3.5ft 6s 4s 18 20 mph 1012.5mb 83f 81f